sensor_id;sensor_type;location;lat;lon;timestamp;pressure;altitude;pressure_sealevel;temperature;humidity
21838;BME280;11081;45.946;6.140;2023-10-08T00:00:46;96093.66;;;16.40;69.41
21838;BME280;11081;45.946;6.140;2023-10-08T00:03:16;96093.66;;;16.40;69.63
21838;BME280;11081;45.946;6.140;2023-10-08T00:05:45;96093.66;;;16.40;69.64
21838;BME280;11081;45.946;6.140;2023-10-08T00:08:15;96089.44;;;16.39;69.68
21838;BME280;11081;45.946;6.140;2023-10-08T00:10:44;96091.03;;;16.40;69.54
21838;BME280;11081;45.946;6.140;2023-10-08T00:13:13;96094.94;;;16.38;69.83
21838;BME280;11081;45.946;6.140;2023-10-08T00:15:43;96096.22;;;16.35;69.92
21838;BME280;11081;45.946;6.140;2023-10-08T00:18:19;96099.88;;;16.34;70.09
21838;BME280;11081;45.946;6.140;2023-10-08T00:20:49;96100.34;;;16.31;70.14
21838;BME280;11081;45.946;6.140;2023-10-08T00:23:23;96100.34;;;16.31;70.26
21838;BME280;11081;45.946;6.140;2023-10-08T00:25:52;96097.63;;;16.26;70.54
21838;BME280;11081;45.946;6.140;2023-10-08T00:28:21;96098.41;;;16.27;70.51
21838;BME280;11081;45.946;6.140;2023-10-08T00:30:49;96094.41;;;16.24;70.65
21838;BME280;11081;45.946;6.140;2023-10-08T00:33:20;96104.59;;;16.21;70.90
21838;BME280;11081;45.946;6.140;2023-10-08T00:35:48;96097.38;;;16.16;71.07
21838;BME280;11081;45.946;6.140;2023-10-08T00:38:16;96098.88;;;16.12;71.27
21838;BME280;11081;45.946;6.140;2023-10-08T00:40:48;96097.84;;;16.13;71.37
21838;BME280;11081;45.946;6.140;2023-10-08T00:43:29;96097.84;;;16.13;71.22
21838;BME280;11081;45.946;6.140;2023-10-08T00:45:58;96100.03;;;16.16;71.29
21838;BME280;11081;45.946;6.140;2023-10-08T00:48:27;96094.19;;;16.14;71.34
21838;BME280;11081;45.946;6.140;2023-10-08T00:51:02;96096.72;;;16.09;71.46
21838;BME280;11081;45.946;6.140;2023-10-08T00:53:44;96096.03;;;16.02;71.44
21838;BME280;11081;45.946;6.140;2023-10-08T00:56:15;96091.22;;;15.99;71.17
21838;BME280;11081;45.946;6.140;2023-10-08T00:58:46;96094.09;;;15.97;71.39
21838;BME280;11081;45.946;6.140;2023-10-08T01:01:16;96085.16;;;15.98;71.27
21838;BME280;11081;45.946;6.140;2023-10-08T01:03:47;96081.72;;;15.98;71.12
21838;BME280;11081;45.946;6.140;2023-10-08T01:06:17;96079.56;;;15.95;71.12
21838;BME280;11081;45.946;6.140;2023-10-08T01:08:47;96081.63;;;15.93;71.27
21838;BME280;11081;45.946;6.140;2023-10-08T01:11:21;96085.75;;;15.89;71.53
21838;BME280;11081;45.946;6.140;2023-10-08T01:13:58;96078.09;;;15.87;71.88
21838;BME280;11081;45.946;6.140;2023-10-08T01:16:27;96084.16;;;15.88;71.91
21838;BME280;11081;45.946;6.140;2023-10-08T01:19:00;96082.09;;;15.90;71.88
21838;BME280;11081;45.946;6.140;2023-10-08T01:21:29;96080.03;;;15.92;72.07
21838;BME280;11081;45.946;6.140;2023-10-08T01:24:03;96082.56;;;15.87;71.97
21838;BME280;11081;45.946;6.140;2023-10-08T01:26:34;96080.03;;;15.92;72.19
21838;BME280;11081;45.946;6.140;2023-10-08T01:29:08;96083.22;;;15.94;71.52
21838;BME280;11081;45.946;6.140;2023-10-08T01:31:38;96070.06;;;15.94;71.47
21838;BME280;11081;45.946;6.140;2023-10-08T01:34:06;96071.88;;;15.93;71.39
21838;BME280;11081;45.946;6.140;2023-10-08T01:36:34;96078.75;;;15.94;71.66
21838;BME280;11081;45.946;6.140;2023-10-08T01:39:04;96079.00;;;15.93;71.65
21838;BME280;11081;45.946;6.140;2023-10-08T01:41:33;96079.56;;;15.95;71.33
21838;BME280;11081;45.946;6.140;2023-10-08T01:44:07;96080.59;;;15.94;71.51
21838;BME280;11081;45.946;6.140;2023-10-08T01:46:35;96075.22;;;15.89;71.96
21838;BME280;11081;45.946;6.140;2023-10-08T01:49:04;96068.34;;;15.88;71.55
21838;BME280;11081;45.946;6.140;2023-10-08T01:51:40;96071.56;;;15.90;71.82
21838;BME280;11081;45.946;6.140;2023-10-08T01:54:15;96076.81;;;15.90;71.80
21838;BME280;11081;45.946;6.140;2023-10-08T01:56:45;96075.31;;;15.94;71.91
21838;BME280;11081;45.946;6.140;2023-10-08T01:59:14;96062.63;;;15.91;71.80
21838;BME280;11081;45.946;6.140;2023-10-08T02:01:43;96076.47;;;15.86;72.27
21838;BME280;11081;45.946;6.140;2023-10-08T02:04:12;96073.63;;;15.88;72.01
21838;BME280;11081;45.946;6.140;2023-10-08T02:06:43;96072.47;;;15.83;72.09
21838;BME280;11081;45.946;6.140;2023-10-08T02:09:12;96072.59;;;15.77;72.32
21838;BME280;11081;45.946;6.140;2023-10-08T02:11:44;96076.00;;;15.77;72.26
21838;BME280;11081;45.946;6.140;2023-10-08T02:14:13;96075.91;;;15.72;72.69
21838;BME280;11081;45.946;6.140;2023-10-08T02:16:42;96075.34;;;15.70;72.60
21838;BME280;11081;45.946;6.140;2023-10-08T02:19:10;96068.25;;;15.71;72.45
21838;BME280;11081;45.946;6.140;2023-10-08T02:21:39;96075.91;;;15.72;72.75
21838;BME280;11081;45.946;6.140;2023-10-08T02:24:13;96074.66;;;15.75;72.40
21838;BME280;11081;45.946;6.140;2023-10-08T02:26:41;96075.91;;;15.72;72.62
21838;BME280;11081;45.946;6.140;2023-10-08T02:29:11;96079.56;;;15.71;72.55
21838;BME280;11081;45.946;6.140;2023-10-08T02:31:40;96077.50;;;15.73;72.53
21838;BME280;11081;45.946;6.140;2023-10-08T02:34:09;96075.91;;;15.72;72.52
21838;BME280;11081;45.946;6.140;2023-10-08T02:36:39;96073.16;;;15.67;72.48
21838;BME280;11081;45.946;6.140;2023-10-08T02:39:10;96076.38;;;15.69;72.59
21838;BME280;11081;45.946;6.140;2023-10-08T02:41:49;96081.63;;;15.69;72.75
21838;BME280;11081;45.946;6.140;2023-10-08T02:44:19;96077.16;;;15.70;72.37
21838;BME280;11081;45.946;6.140;2023-10-08T02:46:49;96072.59;;;15.65;72.52
21838;BME280;11081;45.946;6.140;2023-10-08T02:49:19;96075.81;;;15.67;72.69
21838;BME280;11081;45.946;6.140;2023-10-08T02:51:51;96076.84;;;15.66;72.54
21838;BME280;11081;45.946;6.140;2023-10-08T02:54:21;96078.09;;;15.64;72.69
21838;BME280;11081;45.946;6.140;2023-10-08T02:56:59;96072.47;;;15.60;72.81
21838;BME280;11081;45.946;6.140;2023-10-08T02:59:32;96079.31;;;15.61;72.90
21838;BME280;11081;45.946;6.140;2023-10-08T03:02:09;96079.75;;;15.58;72.99
21838;BME280;11081;45.946;6.140;2023-10-08T03:04:41;96081.81;;;15.56;72.71
21838;BME280;11081;45.946;6.140;2023-10-08T03:07:12;96078.97;;;15.57;72.77
21838;BME280;11081;45.946;6.140;2023-10-08T03:09:51;96089.16;;;15.54;72.72
21838;BME280;11081;45.946;6.140;2023-10-08T03:12:30;96084.00;;;15.47;73.55
21838;BME280;11081;45.946;6.140;2023-10-08T03:15:01;96077.00;;;15.30;74.03
21838;BME280;11081;45.946;6.140;2023-10-08T03:17:40;96089.56;;;15.28;74.25
21838;BME280;11081;45.946;6.140;2023-10-08T03:20:16;96078.16;;;15.34;74.40
21838;BME280;11081;45.946;6.140;2023-10-08T03:23:05;96088.66;;;15.34;74.14
21838;BME280;11081;45.946;6.140;2023-10-08T03:25:40;96091.88;;;15.36;74.13
21838;BME280;11081;45.946;6.140;2023-10-08T03:28:09;96093.47;;;15.37;74.21
21838;BME280;11081;45.946;6.140;2023-10-08T03:30:41;96097.13;;;15.36;73.99
21838;BME280;11081;45.946;6.140;2023-10-08T03:33:18;96097.59;;;15.33;73.75
21838;BME280;11081;45.946;6.140;2023-10-08T03:35:51;96087.06;;;15.33;73.99
21838;BME280;11081;45.946;6.140;2023-10-08T03:38:22;96092.44;;;15.26;74.36
21838;BME280;11081;45.946;6.140;2023-10-08T03:40:55;96093.53;;;15.18;74.86
21838;BME280;11081;45.946;6.140;2023-10-08T03:43:33;96095.16;;;15.19;74.74
21838;BME280;11081;45.946;6.140;2023-10-08T03:46:15;96093.13;;;15.21;74.31
21838;BME280;11081;45.946;6.140;2023-10-08T03:48:43;96093.94;;;15.22;74.45
21838;BME280;11081;45.946;6.140;2023-10-08T03:51:12;96096.56;;;15.22;74.54
21838;BME280;11081;45.946;6.140;2023-10-08T03:53:41;96088.44;;;15.23;74.56
21838;BME280;11081;45.946;6.140;2023-10-08T03:56:25;96083.63;;;15.20;74.45
21838;BME280;11081;45.946;6.140;2023-10-08T03:58:57;96085.66;;;15.18;74.55
21838;BME280;11081;45.946;6.140;2023-10-08T04:01:28;96093.53;;;15.18;74.40
21838;BME280;11081;45.946;6.140;2023-10-08T04:03:59;96087.25;;;15.19;74.54
21838;BME280;11081;45.946;6.140;2023-10-08T04:06:28;96095.16;;;15.19;74.33
21838;BME280;11081;45.946;6.140;2023-10-08T04:08:57;96091.94;;;15.17;74.49
21838;BME280;11081;45.946;6.140;2023-10-08T04:11:39;96092.97;;;15.16;74.38
21838;BME280;11081;45.946;6.140;2023-10-08T04:14:23;96098.22;;;15.16;74.28
21838;BME280;11081;45.946;6.140;2023-10-08T04:16:52;96104.06;;;15.18;74.58
21838;BME280;11081;45.946;6.140;2023-10-08T04:19:22;96093.78;;;15.17;74.41
21838;BME280;11081;45.946;6.140;2023-10-08T04:21:53;96096.63;;;15.15;74.65
21838;BME280;11081;45.946;6.140;2023-10-08T04:24:23;96103.50;;;15.16;74.01
21838;BME280;11081;45.946;6.140;2023-10-08T04:27:01;96095.03;;;15.14;74.32
21838;BME280;11081;45.946;6.140;2023-10-08T04:29:32;96093.44;;;15.13;74.12
21838;BME280;11081;45.946;6.140;2023-10-08T04:32:05;96091.38;;;15.15;74.19
21838;BME280;11081;45.946;6.140;2023-10-08T04:34:39;96099.16;;;15.10;74.59
21838;BME280;11081;45.946;6.140;2023-10-08T04:37:12;96098.34;;;15.10;74.48
21838;BME280;11081;45.946;6.140;2023-10-08T04:39:46;96091.47;;;15.09;74.40
21838;BME280;11081;45.946;6.140;2023-10-08T04:42:21;96095.38;;;15.06;74.55
21838;BME280;11081;45.946;6.140;2023-10-08T04:44:54;96096.84;;;15.02;74.43
21838;BME280;11081;45.946;6.140;2023-10-08T04:47:24;96102.09;;;15.02;74.50
21838;BME280;11081;45.946;6.140;2023-10-08T04:50:03;96105.75;;;15.01;75.27
21838;BME280;11081;45.946;6.140;2023-10-08T04:52:33;96098.91;;;15.00;75.01
21838;BME280;11081;45.946;6.140;2023-10-08T04:55:12;96102.53;;;14.99;75.36
21838;BME280;11081;45.946;6.140;2023-10-08T04:57:46;96100.94;;;14.98;75.24
21838;BME280;11081;45.946;6.140;2023-10-08T05:00:16;96102.53;;;14.99;75.29
21838;BME280;11081;45.946;6.140;2023-10-08T05:03:05;96107.38;;;15.02;74.91
21838;BME280;11081;45.946;6.140;2023-10-08T05:05:40;96108.00;;;14.86;75.06
21838;BME280;11081;45.946;6.140;2023-10-08T05:08:28;96100.09;;;14.86;74.84
21838;BME280;11081;45.946;6.140;2023-10-08T05:10:59;96104.91;;;14.89;75.15
21838;BME280;11081;45.946;6.140;2023-10-08T05:13:51;96104.91;;;14.89;75.39
21838;BME280;11081;45.946;6.140;2023-10-08T05:16:33;96103.31;;;14.88;75.44
21838;BME280;11081;45.946;6.140;2023-10-08T05:19:11;96106.97;;;14.87;75.52
21838;BME280;11081;45.946;6.140;2023-10-08T05:22:15;96097.56;;;14.79;75.52
21838;BME280;11081;45.946;6.140;2023-10-08T05:25:08;96105.59;;;14.84;75.33
21838;BME280;11081;45.946;6.140;2023-10-08T05:27:52;96104.78;;;14.84;75.04
21838;BME280;11081;45.946;6.140;2023-10-08T05:30:35;96106.84;;;14.82;75.59
21838;BME280;11081;45.946;6.140;2023-10-08T05:33:09;96105.59;;;14.84;75.01
21838;BME280;11081;45.946;6.140;2023-10-08T05:35:52;96112.91;;;14.82;75.29
21838;BME280;11081;45.946;6.140;2023-10-08T05:38:30;96112.66;;;14.84;75.25
21838;BME280;11081;45.946;6.140;2023-10-08T05:41:15;96115.31;;;14.84;74.75
21838;BME280;11081;45.946;6.140;2023-10-08T05:44:18;96114.16;;;14.80;75.24
21838;BME280;11081;45.946;6.140;2023-10-08T05:47:05;96116.78;;;14.80;75.37
21838;BME280;11081;45.946;6.140;2023-10-08T05:49:55;96117.94;;;14.84;75.13
21838;BME280;11081;45.946;6.140;2023-10-08T05:52:56;96115.75;;;14.81;74.91
21838;BME280;11081;45.946;6.140;2023-10-08T05:55:41;96116.97;;;14.78;75.21
21838;BME280;11081;45.946;6.140;2023-10-08T05:58:14;96126.25;;;14.81;74.71
21838;BME280;11081;45.946;6.140;2023-10-08T06:00:51;96129.91;;;14.80;75.15
21838;BME280;11081;45.946;6.140;2023-10-08T06:03:35;96122.22;;;14.78;75.43
21838;BME280;11081;45.946;6.140;2023-10-08T06:06:13;96136.78;;;14.81;75.09
21838;BME280;11081;45.946;6.140;2023-10-08T06:08:53;96137.34;;;14.83;75.02
21838;BME280;11081;45.946;6.140;2023-10-08T06:11:39;96137.94;;;14.85;75.22
21838;BME280;11081;45.946;6.140;2023-10-08T06:14:23;96141.13;;;14.87;74.80
21838;BME280;11081;45.946;6.140;2023-10-08T06:17:03;96134.28;;;14.86;74.73
21838;BME280;11081;45.946;6.140;2023-10-08T06:19:40;96142.72;;;14.88;75.03
21838;BME280;11081;45.946;6.140;2023-10-08T06:22:10;96143.88;;;14.92;74.95
21838;BME280;11081;45.946;6.140;2023-10-08T06:24:38;96143.88;;;14.92;75.42
21838;BME280;11081;45.946;6.140;2023-10-08T06:27:06;96143.88;;;14.92;74.62
21838;BME280;11081;45.946;6.140;2023-10-08T06:29:36;96146.06;;;14.95;75.06
21838;BME280;11081;45.946;6.140;2023-10-08T06:32:11;96152.28;;;15.01;74.75
21838;BME280;11081;45.946;6.140;2023-10-08T06:34:39;96148.97;;;15.05;75.20
21838;BME280;11081;45.946;6.140;2023-10-08T06:37:07;96158.25;;;15.08;75.39
21838;BME280;11081;45.946;6.140;2023-10-08T06:39:35;96149.69;;;15.12;75.12
21838;BME280;11081;45.946;6.140;2023-10-08T06:42:15;96158.16;;;15.14;75.32
21838;BME280;11081;45.946;6.140;2023-10-08T06:44:44;96160.91;;;15.19;75.19
21838;BME280;11081;45.946;6.140;2023-10-08T06:47:15;96167.34;;;15.23;75.49
21838;BME280;11081;45.946;6.140;2023-10-08T06:49:43;96163.69;;;15.24;75.92
21838;BME280;11081;45.946;6.140;2023-10-08T06:52:11;96166.16;;;15.19;76.03
21838;BME280;11081;45.946;6.140;2023-10-08T06:54:40;96171.00;;;15.22;76.07
21838;BME280;11081;45.946;6.140;2023-10-08T06:57:08;96169.63;;;15.32;75.86
21838;BME280;11081;45.946;6.140;2023-10-08T06:59:42;96177.19;;;15.40;75.65
21838;BME280;11081;45.946;6.140;2023-10-08T07:02:10;96172.66;;;15.47;75.84
21838;BME280;11081;45.946;6.140;2023-10-08T07:04:38;96177.59;;;15.55;75.38
21838;BME280;11081;45.946;6.140;2023-10-08T07:07:09;96184.59;;;15.61;75.17
21838;BME280;11081;45.946;6.140;2023-10-08T07:09:38;96176.38;;;15.69;74.99
21838;BME280;11081;45.946;6.140;2023-10-08T07:12:06;96181.66;;;15.69;74.93
21838;BME280;11081;45.946;6.140;2023-10-08T07:14:41;96181.09;;;15.67;74.51
21838;BME280;11081;45.946;6.140;2023-10-08T07:17:10;96184.16;;;15.64;74.43
21838;BME280;11081;45.946;6.140;2023-10-08T07:19:47;96183.72;;;15.67;74.70
21838;BME280;11081;45.946;6.140;2023-10-08T07:22:17;96179.59;;;15.71;74.46
21838;BME280;11081;45.946;6.140;2023-10-08T07:24:50;96182.81;;;15.73;74.30
21838;BME280;11081;45.946;6.140;2023-10-08T07:27:19;96189.22;;;15.77;72.38
21838;BME280;11081;45.946;6.140;2023-10-08T07:29:52;96186.72;;;15.82;72.58
21838;BME280;11081;45.946;6.140;2023-10-08T07:32:23;96194.06;;;16.04;72.48
21838;BME280;11081;45.946;6.140;2023-10-08T07:34:53;96188.78;;;16.04;72.97
21838;BME280;11081;45.946;6.140;2023-10-08T07:37:25;96196.56;;;16.22;72.96
21838;BME280;11081;45.946;6.140;2023-10-08T07:39:53;96195.88;;;16.38;72.66
21838;BME280;11081;45.946;6.140;2023-10-08T07:42:22;96194.25;;;16.37;72.52
21838;BME280;11081;45.946;6.140;2023-10-08T07:44:50;96199.78;;;16.24;72.64
21838;BME280;11081;45.946;6.140;2023-10-08T07:47:22;96205.50;;;16.21;72.82
21838;BME280;11081;45.946;6.140;2023-10-08T07:49:50;96206.53;;;16.20;73.27
21838;BME280;11081;45.946;6.140;2023-10-08T07:52:20;96193.34;;;16.20;73.31
21838;BME280;11081;45.946;6.140;2023-10-08T07:54:48;96206.75;;;16.19;73.08
21838;BME280;11081;45.946;6.140;2023-10-08T07:57:16;96200.22;;;16.21;73.27
21838;BME280;11081;45.946;6.140;2023-10-08T07:59:52;96203.66;;;16.33;72.81
21838;BME280;11081;45.946;6.140;2023-10-08T08:02:23;96208.00;;;16.39;72.97
21838;BME280;11081;45.946;6.140;2023-10-08T08:04:53;96212.38;;;16.45;73.09
21838;BME280;11081;45.946;6.140;2023-10-08T08:07:22;96204.56;;;16.51;73.10
21838;BME280;11081;45.946;6.140;2023-10-08T08:09:52;96208.34;;;16.55;73.37
21838;BME280;11081;45.946;6.140;2023-10-08T08:12:26;96212.00;;;16.54;73.54
21838;BME280;11081;45.946;6.140;2023-10-08T08:14:55;96214.97;;;16.57;73.97
21838;BME280;11081;45.946;6.140;2023-10-08T08:17:24;96210.03;;;16.61;73.79
21838;BME280;11081;45.946;6.140;2023-10-08T08:19:53;96217.66;;;16.69;73.63
21838;BME280;11081;45.946;6.140;2023-10-08T08:22:21;96213.50;;;16.73;73.20
21838;BME280;11081;45.946;6.140;2023-10-08T08:24:51;96213.94;;;16.82;72.69
21838;BME280;11081;45.946;6.140;2023-10-08T08:27:28;96213.22;;;16.86;72.61
21838;BME280;11081;45.946;6.140;2023-10-08T08:30:00;96220.56;;;16.84;72.67
21838;BME280;11081;45.946;6.140;2023-10-08T08:32:39;96217.50;;;16.87;72.42
21838;BME280;11081;45.946;6.140;2023-10-08T08:35:11;96220.00;;;16.82;72.38
21838;BME280;11081;45.946;6.140;2023-10-08T08:37:43;96216.47;;;16.88;71.64
21838;BME280;11081;45.946;6.140;2023-10-08T08:40:13;96219.84;;;17.00;71.32
21838;BME280;11081;45.946;6.140;2023-10-08T08:42:45;96224.97;;;17.07;71.28
21838;BME280;11081;45.946;6.140;2023-10-08T08:45:18;96213.50;;;17.13;70.31
21838;BME280;11081;45.946;6.140;2023-10-08T08:47:48;96214.50;;;17.24;70.00
21838;BME280;11081;45.946;6.140;2023-10-08T08:50:17;96220.31;;;17.26;70.20
21838;BME280;11081;45.946;6.140;2023-10-08T08:52:46;96228.94;;;17.33;70.48
21838;BME280;11081;45.946;6.140;2023-10-08T08:55:14;96227.50;;;17.42;69.36
21838;BME280;11081;45.946;6.140;2023-10-08T08:57:46;96223.00;;;17.43;68.17
21838;BME280;11081;45.946;6.140;2023-10-08T09:00:15;96228.63;;;17.46;68.05
21838;BME280;11081;45.946;6.140;2023-10-08T09:02:44;96228.72;;;17.51;68.03
21838;BME280;11081;45.946;6.140;2023-10-08T09:05:16;96230.41;;;17.57;67.36
21838;BME280;11081;45.946;6.140;2023-10-08T09:07:55;96230.59;;;17.67;67.12
21838;BME280;11081;45.946;6.140;2023-10-08T09:10:23;96233.34;;;17.73;66.47
21838;BME280;11081;45.946;6.140;2023-10-08T09:12:55;96233.34;;;17.73;65.75
21838;BME280;11081;45.946;6.140;2023-10-08T09:15:25;96225.03;;;17.81;65.03
21838;BME280;11081;45.946;6.140;2023-10-08T09:17:53;96237.28;;;17.87;64.02
21838;BME280;11081;45.946;6.140;2023-10-08T09:20:24;96228.41;;;17.93;63.35
21838;BME280;11081;45.946;6.140;2023-10-08T09:23:05;96225.34;;;18.01;62.62
21838;BME280;11081;45.946;6.140;2023-10-08T09:25:34;96231.75;;;18.05;62.58
21838;BME280;11081;45.946;6.140;2023-10-08T09:28:02;96225.50;;;18.11;62.16
21838;BME280;11081;45.946;6.140;2023-10-08T09:30:34;96225.50;;;18.11;62.42
21838;BME280;11081;45.946;6.140;2023-10-08T09:33:05;96220.16;;;18.06;63.81
21838;BME280;11081;45.946;6.140;2023-10-08T09:35:35;96225.59;;;18.16;64.76
21838;BME280;11081;45.946;6.140;2023-10-08T09:38:06;96216.69;;;18.22;63.99
21838;BME280;11081;45.946;6.140;2023-10-08T09:40:36;96223.75;;;18.34;63.74
21838;BME280;11081;45.946;6.140;2023-10-08T09:43:04;96215.41;;;18.42;63.29
21838;BME280;11081;45.946;6.140;2023-10-08T09:45:36;96209.13;;;18.48;62.96
21838;BME280;11081;45.946;6.140;2023-10-08T09:48:10;96210.72;;;18.49;63.14
21838;BME280;11081;45.946;6.140;2023-10-08T09:50:42;96212.97;;;18.57;63.18
21838;BME280;11081;45.946;6.140;2023-10-08T09:53:12;96218.91;;;18.64;62.81
21838;BME280;11081;45.946;6.140;2023-10-08T09:55:45;96209.59;;;18.62;62.07
21838;BME280;11081;45.946;6.140;2023-10-08T09:58:16;96213.13;;;18.67;62.24
21838;BME280;11081;45.946;6.140;2023-10-08T10:00:45;96211.56;;;18.71;61.45
21838;BME280;11081;45.946;6.140;2023-10-08T10:03:15;96208.78;;;18.78;61.94
21838;BME280;11081;45.946;6.140;2023-10-08T10:05:48;96192.69;;;18.84;61.19
21838;BME280;11081;45.946;6.140;2023-10-08T10:08:16;96200.69;;;18.89;61.40
21838;BME280;11081;45.946;6.140;2023-10-08T10:10:46;96201.31;;;18.97;60.60
21838;BME280;11081;45.946;6.140;2023-10-08T10:13:16;96207.22;;;19.04;60.58
21838;BME280;11081;45.946;6.140;2023-10-08T10:15:47;96191.41;;;19.09;60.22
21838;BME280;11081;45.946;6.140;2023-10-08T10:18:16;96190.63;;;19.13;60.13
21838;BME280;11081;45.946;6.140;2023-10-08T10:20:59;96196.25;;;19.17;60.48
21838;BME280;11081;45.946;6.140;2023-10-08T10:23:35;96193.16;;;19.25;61.06
21838;BME280;11081;45.946;6.140;2023-10-08T10:26:04;96197.44;;;19.31;61.19
21838;BME280;11081;45.946;6.140;2023-10-08T10:28:36;96189.06;;;19.39;61.29
21838;BME280;11081;45.946;6.140;2023-10-08T10:31:04;96195.47;;;19.43;60.63
21838;BME280;11081;45.946;6.140;2023-10-08T10:33:34;96190.75;;;19.50;60.14
21838;BME280;11081;45.946;6.140;2023-10-08T10:36:08;96189.78;;;19.57;59.65
21838;BME280;11081;45.946;6.140;2023-10-08T10:38:40;96193.00;;;19.59;59.53
21838;BME280;11081;45.946;6.140;2023-10-08T10:41:09;96190.97;;;19.71;60.36
21838;BME280;11081;45.946;6.140;2023-10-08T10:43:37;96187.88;;;19.79;59.50
21838;BME280;11081;45.946;6.140;2023-10-08T10:46:07;96190.03;;;19.82;59.22
21838;BME280;11081;45.946;6.140;2023-10-08T10:48:51;96183.16;;;19.86;59.04
21838;BME280;11081;45.946;6.140;2023-10-08T10:51:33;96184.00;;;19.97;61.69
21838;BME280;11081;45.946;6.140;2023-10-08T10:54:01;96178.00;;;20.06;60.43
21838;BME280;11081;45.946;6.140;2023-10-08T10:56:36;96176.19;;;20.12;60.26
21838;BME280;11081;45.946;6.140;2023-10-08T10:59:09;96170.66;;;20.19;60.74
21838;BME280;11081;45.946;6.140;2023-10-08T11:01:49;96171.78;;;20.28;59.41
21838;BME280;11081;45.946;6.140;2023-10-08T11:04:19;96176.56;;;20.31;59.03
21838;BME280;11081;45.946;6.140;2023-10-08T11:06:58;96171.28;;;20.36;59.46
21838;BME280;11081;45.946;6.140;2023-10-08T11:09:27;96163.88;;;20.38;58.81
21838;BME280;11081;45.946;6.140;2023-10-08T11:12:06;96156.53;;;20.45;59.69
21838;BME280;11081;45.946;6.140;2023-10-08T11:14:39;96160.25;;;20.49;58.73
21838;BME280;11081;45.946;6.140;2023-10-08T11:17:11;96159.75;;;20.52;58.15
21838;BME280;11081;45.946;6.140;2023-10-08T11:19:39;96159.22;;;20.55;58.32
21838;BME280;11081;45.946;6.140;2023-10-08T11:22:10;96158.69;;;20.58;57.26
21838;BME280;11081;45.946;6.140;2023-10-08T11:24:43;96157.16;;;20.67;56.94
21838;BME280;11081;45.946;6.140;2023-10-08T11:27:16;96147.09;;;20.75;56.55
21838;BME280;11081;45.946;6.140;2023-10-08T11:29:46;96153.47;;;20.79;56.58
21838;BME280;11081;45.946;6.140;2023-10-08T11:32:15;96150.06;;;20.83;55.58
21838;BME280;11081;45.946;6.140;2023-10-08T11:34:45;96142.91;;;20.89;55.03
21838;BME280;11081;45.946;6.140;2023-10-08T11:37:27;96141.84;;;20.95;56.11
21838;BME280;11081;45.946;6.140;2023-10-08T11:39:55;96137.09;;;21.02;55.50
21838;BME280;11081;45.946;6.140;2023-10-08T11:42:25;96138.19;;;21.06;55.74
21838;BME280;11081;45.946;6.140;2023-10-08T11:45:11;96131.28;;;21.10;55.85
21838;BME280;11081;45.946;6.140;2023-10-08T11:47:52;96124.91;;;21.11;55.35
21838;BME280;11081;45.946;6.140;2023-10-08T11:50:24;96123.06;;;21.17;55.37
21838;BME280;11081;45.946;6.140;2023-10-08T11:52:59;96127.63;;;21.26;55.60
21838;BME280;11081;45.946;6.140;2023-10-08T11:55:33;96120.47;;;21.32;55.96
21838;BME280;11081;45.946;6.140;2023-10-08T11:58:04;96125.50;;;21.39;57.28
21838;BME280;11081;45.946;6.140;2023-10-08T12:00:37;96119.13;;;21.35;57.69
21838;BME280;11081;45.946;6.140;2023-10-08T12:03:11;96110.13;;;21.46;58.20
21838;BME280;11081;45.946;6.140;2023-10-08T12:05:43;96104.28;;;21.49;58.44
21838;BME280;11081;45.946;6.140;2023-10-08T12:08:17;96105.59;;;21.56;59.24
21838;BME280;11081;45.946;6.140;2023-10-08T12:10:47;96102.13;;;21.61;58.61
21838;BME280;11081;45.946;6.140;2023-10-08T12:13:21;96106.41;;;21.67;58.29
21838;BME280;11081;45.946;6.140;2023-10-08T12:15:52;96098.41;;;21.72;58.14
21838;BME280;11081;45.946;6.140;2023-10-08T12:18:32;96095.19;;;21.80;59.01
21838;BME280;11081;45.946;6.140;2023-10-08T12:21:07;96095.19;;;21.90;59.53
21838;BME280;11081;45.946;6.140;2023-10-08T12:23:39;96093.56;;;22.00;59.30
21838;BME280;11081;45.946;6.140;2023-10-08T12:26:07;96085.31;;;22.01;58.77
21838;BME280;11081;45.946;6.140;2023-10-08T12:28:36;96086.91;;;22.02;59.58
21838;BME280;11081;45.946;6.140;2023-10-08T12:31:04;96082.97;;;22.10;59.75
21838;BME280;11081;45.946;6.140;2023-10-08T12:33:32;96084.56;;;22.11;58.67
21838;BME280;11081;45.946;6.140;2023-10-08T12:35:59;96068.84;;;22.14;59.28
21838;BME280;11081;45.946;6.140;2023-10-08T12:38:40;96074.66;;;22.21;57.92
21838;BME280;11081;45.946;6.140;2023-10-08T12:41:11;96068.56;;;22.21;58.51
21838;BME280;11081;45.946;6.140;2023-10-08T12:43:39;96065.88;;;22.26;58.19
21838;BME280;11081;45.946;6.140;2023-10-08T12:46:09;96058.69;;;22.32;59.00
21838;BME280;11081;45.946;6.140;2023-10-08T12:48:45;96065.28;;;22.39;58.62
21838;BME280;11081;45.946;6.140;2023-10-08T12:51:15;96057.84;;;22.41;58.45
21838;BME280;11081;45.946;6.140;2023-10-08T12:53:44;96061.81;;;22.44;58.17
21838;BME280;11081;45.946;6.140;2023-10-08T12:56:26;96058.06;;;22.55;58.47
21838;BME280;11081;45.946;6.140;2023-10-08T12:59:02;96059.34;;;22.63;57.85
21838;BME280;11081;45.946;6.140;2023-10-08T13:01:34;96054.00;;;22.63;58.07
21838;BME280;11081;45.946;6.140;2023-10-08T13:04:03;96059.56;;;22.66;58.18
21838;BME280;11081;45.946;6.140;2023-10-08T13:06:42;96050.25;;;22.74;57.34
21838;BME280;11081;45.946;6.140;2023-10-08T13:09:13;96058.69;;;22.86;56.07
21838;BME280;11081;45.946;6.140;2023-10-08T13:11:42;96057.06;;;22.95;55.73
21838;BME280;11081;45.946;6.140;2023-10-08T13:14:10;96055.38;;;23.04;56.72
21838;BME280;11081;45.946;6.140;2023-10-08T13:16:39;96053.25;;;23.06;56.63
21838;BME280;11081;45.946;6.140;2023-10-08T13:19:07;96053.41;;;23.20;56.03
21838;BME280;11081;45.946;6.140;2023-10-08T13:21:36;96058.13;;;23.33;55.12
21838;BME280;11081;45.946;6.140;2023-10-08T13:24:04;96053.50;;;23.44;54.63
21838;BME280;11081;45.946;6.140;2023-10-08T13:26:37;96053.41;;;23.54;53.87
21838;BME280;11081;45.946;6.140;2023-10-08T13:29:06;96046.41;;;23.63;53.51